AirNav   Air Wisconsin pilot careers
 
 362 users online  

TX81 Robotek Airport
Gainesville, Texas, USA

GOING TO GAINESVILLE?


FAA INFORMATION EFFECTIVE 16 AUGUST 2018

Location

FAA Identifier: TX81
Lat/Long: 33-33-00.0000N / 097-02-17.0000W
33-33.000000N / 097-02.283333W
33.5500000 / -97.0380556
(estimated)
Elevation: 775 ft. / 236 m (estimated)
Variation: 06E (2000)
From city: 7 miles SE of GAINESVILLE, TX
Time zone: UTC -5 (UTC -6 during Standard Time)
Zip code: 76240

Airport Operations

Airport use: Private use. Permission required prior to landing
Activation date: 11/2000
Control tower: no
ARTCC: FORT WORTH CENTER
FSS: FORT WORTH FLIGHT SERVICE STATION
Attendance: MON-FRI 0800-1600
Wind indicator: yes
Segmented circle: yes

Airport Communications

WX AWOS-3 at GLE (10 nm NW): 118.375 (940-612-3549)

Nearby radio navigation aids

VOR radial/distance  VOR name  Freq  Var
UKWr083/39.2BOWIE VORTAC117.1506E
URHr229/40.0TEXOMA VOR/DME114.3005E

 
NDB name  Hdg/Dist  Freq  Var  ID
DENISON222/24.834106EDNI -.. -. ..
MELISA305/28.442103EVLY ...- .-.. -.--
GRINDSTONE MOUNTAIN091/36.935604EGMZ --. -- --..

Airport Services

Runway Information

Runway 9/27

Dimensions: 1238 x 50 ft. / 377 x 15 m
Surface: turf
RUNWAY 9  RUNWAY 27
Traffic pattern: leftright
Obstructions: 40 ft. trees, 30 ft. from runway50 ft. pline, 100 ft. from runway

Airport Ownership and Management from official FAA records

Ownership: Privately-owned
Owner: BRUCE MARKLE
1271 FM 3496
GAINESVILLE, TX 76240
Phone 940-612-3030
Manager: BRUCE MARKLE
1271 FM 3496
GAINESVILLE, TX 76240
Phone 940-612-3030

Additional Remarks

POWERLINE 150 AGL AND 800 FT SOUTH OF AND PARALLEL TO RY.

Instrument Procedures

There are no published instrument procedures at TX81.

Some nearby airports with instrument procedures:

KGLE - Gainesville Municipal Airport (10 nm NW)
KGYI - North Texas Regional Airport/Perrin Field (21 nm NE)
KDTO - Denton Enterprise Airport (22 nm S)
KSWI - Sherman Municipal Airport (23 nm E)
KTKI - McKinney National Airport (32 nm SE)
 
Loc | Ops | Rwys | IFR | FBO | Links
Com | Nav | Svcs | Stats | Notes


 
Area around TX81 (Robotek Airport)
 
Road maps at: MapQuest Bing Google
 
Aerial photo
No photo
 
Sectional chart

 
Airport distance calculator
Flying to Robotek Airport? Find the distance to fly.

From to TX81

Sunrise and sunset
Times for 18-Aug-2018
 Local
(UTC-5)
 Zulu
(UTC)
Morning civil twilight06:2711:27
Sunrise06:5311:53
Sunset20:1001:10
Evening civil twilight20:3701:37

Current date and time
Zulu (UTC)  18-Aug-2018 08:18:22
Local (UTC-5)  18-Aug-2018 03:18:22
 
METAR
KGLE 
10nm NW 
180755Z AUTO 00000KT 10SM CLR 24/22 A3001 RMK AO2 T02440217
TAF
KAFW 
38nm S 
180520Z 1806/1906 18006KT P6SM FEW080 BKN250 FM181100 20010KT P6SM SCT080 FM181500 25008KT P6SM SCT080 FM182200 31007KT P6SM VCTS BKN070CB BKN150 FM190200 09008KT P6SM BKN070 BKN150
KDFW 
39nm S 
180520Z 1806/1912 18006KT P6SM BKN250 FM180800 18007KT P6SM VCSH SCT080 SCT250 FM181100 20010KT P6SM SCT080 FM181500 25008KT P6SM SCT080 FM182200 31007KT P6SM VCTS BKN070CB BKN150 FM190200 09008KT P6SM BKN070 BKN150 FM190600 18008KT P6SM VCSH BKN080 BKN150
KDAL 
43nm S 
180520Z 1806/1906 18006KT P6SM BKN250 FM180800 18007KT P6SM VCSH SCT080 SCT250 FM181100 20010KT P6SM SCT080 FM181500 25008KT P6SM SCT080 FM182200 31007KT P6SM VCTS BKN070CB BKN150 FM190200 09008KT P6SM BKN070 BKN150
KFTW 
46nm S 
180520Z 1806/1906 18006KT P6SM FEW080 BKN250 FM181100 20010KT P6SM SCT080 FM181500 25008KT P6SM SCT080 FM182200 31007KT P6SM VCTS BKN070CB BKN150 FM190200 09008KT P6SM BKN070 BKN150
NOTAMs
Click for the latest NOTAMs
NOTAMs are issued by the DoD/FAA and will open in a separate window not controlled by AirNav.

 

 
 

Would you like to see your business listed on this page?

 If your business provides an interesting product or service to pilots, flight crews, aircraft, or users of the Robotek Airport, you should consider listing it here.  To start the listing process, click on the button below
 
Add a business
 

Other Pages about Robotek Airport

Update a link
 
Copyright © AirNav, LLC. All rights reserved. Privacy Policy  Contact